Time;durP1;ratioP1;P1;durP2;ratioP2;P2;SDS_P1;SDS_P2;PMS_P1;PMS_P2;Temp;Humidity;BMP_temperature;BMP_pressure;BME280_temperature;BME280_humidity;BME280_pressure;Samples;Min_cycle;Max_cycle;Signal;HPM_P1;HPM_P2
2022/01/13 00:01:39;;;;;;;;;;;;;;;0.49;80.00;101963.81;4995443;28;20293;-91
2022/01/13 00:04:04;;;;;;;;;;;;;;;0.50;79.83;101962.97;4993999;28;19957;-91
2022/01/13 00:06:29;;;;;;;;;;;;;;;0.46;79.68;101965.44;4993796;28;20443;-89
2022/01/13 00:08:55;;;;;;;;;;;;;;;0.48;79.74;101968.97;4993452;28;19928;-93
2022/01/13 00:11:20;;;;;;;;;;;;;;;0.45;79.78;101975.00;4994929;28;19918;-91
2022/01/13 00:13:51;;;;;;;;;;;;;;;0.42;79.78;101971.41;4995236;28;19918;-87
2022/01/13 03:12:49;;;;;;;;;;;;;;;4.67;100.00;101976.72;4964042;28;19992;-88
2022/01/13 03:15:20;;;;;;;;;;;;;;;4.69;100.00;101971.50;4995044;28;19926;-95
2022/01/13 03:17:45;;;;;;;;;;;;;;;4.73;100.00;101979.44;4995366;28;20024;-92
2022/01/13 03:20:11;;;;;;;;;;;;;;;4.78;100.00;101976.03;4994081;28;20338;-90
2022/01/13 03:22:36;;;;;;;;;;;;;;;4.80;100.00;101974.28;4993940;28;19928;-91
2022/01/13 03:25:03;;;;;;;;;;;;;;;4.83;100.00;101974.34;4993826;28;20384;-93
2022/01/13 03:27:34;;;;;;;;;;;;;;;4.86;100.00;101972.63;4993877;28;19921;-93
2022/01/13 03:30:02;;;;;;;;;;;;;;;4.87;100.00;101977.03;4995527;28;19926;-92
2022/01/13 03:32:29;;;;;;;;;;;;;;;4.91;100.00;101971.00;4996389;28;19922;-93
2022/01/13 03:34:55;;;;;;;;;;;;;;;4.96;100.00;101975.41;4996816;28;19929;-93
2022/01/13 03:37:20;;;;;;;;;;;;;;;5.00;100.00;101972.84;4996563;28;19918;-92
2022/01/13 03:39:45;;;;;;;;;;;;;;;5.02;100.00;101978.13;4995176;28;20113;-92
2022/01/13 03:42:11;;;;;;;;;;;;;;;5.04;100.00;101984.28;4997412;28;19918;-91
2022/01/13 03:44:36;;;;;;;;;;;;;;;5.07;100.00;101985.25;4996446;28;19918;-96
2022/01/13 03:47:04;;;;;;;;;;;;;;;5.18;100.00;101993.25;4999545;28;19918;-95
2022/01/13 03:49:30;;;;;;;;;;;;;;;5.28;100.00;101986.38;5007168;28;19925;-93
2022/01/13 03:51:57;;;;;;;;;;;;;;;5.30;100.00;101994.28;5004526;28;19968;-95
2022/01/13 03:54:32;;;;;;;;;;;;;;;5.34;100.00;102004.88;5000869;28;19918;-91
2022/01/13 03:56:57;;;;;;;;;;;;;;;4.83;100.00;101995.34;5014351;28;19917;-95
2022/01/13 03:59:30;;;;;;;;;;;;;;;3.93;100.00;101992.91;5001533;28;19918;-95
2022/01/13 04:02:00;;;;;;;;;;;;;;;3.52;100.00;101985.94;5007812;28;20377;-91
2022/01/13 04:04:29;;;;;;;;;;;;;;;3.36;100.00;101994.34;5000093;28;19918;-94
2022/01/13 04:07:11;;;;;;;;;;;;;;;3.29;100.00;101998.56;5009262;28;20100;-96
2022/01/13 04:09:39;;;;;;;;;;;;;;;3.05;100.00;101991.91;5002155;28;19922;-94
2022/01/13 04:12:07;;;;;;;;;;;;;;;3.00;100.00;101993.53;5001590;28;19926;-93
2022/01/13 04:14:43;;;;;;;;;;;;;;;2.96;100.00;101994.31;5001425;28;19922;-92
2022/01/13 04:17:08;;;;;;;;;;;;;;;2.81;99.13;101991.31;5002749;28;19922;-96
2022/01/13 08:36:48;;;;;;;;;;;;;;;0.54;80.60;102043.13;5460292;23;20395;-95
2022/01/13 08:39:21;;;;;;;;;;;;;;;0.54;80.41;102034.41;4993649;28;20072;-93
2022/01/13 08:41:46;;;;;;;;;;;;;;;0.54;80.03;102032.72;4990916;28;19922;-92
2022/01/13 08:44:32;;;;;;;;;;;;;;;1.05;82.10;102041.31;4990043;28;20296;-90
2022/01/13 08:46:57;;;;;;;;;;;;;;;2.76;81.87;102035.75;4985302;28;19960;-91
2022/01/13 08:49:22;;;;;;;;;;;;;;;1.90;81.94;102034.31;4984316;28;20003;-91
2022/01/13 08:51:48;;;;;;;;;;;;;;;1.62;82.31;102035.22;4982770;28;19957;-89
2022/01/13 08:54:13;;;;;;;;;;;;;;;1.49;82.29;102036.59;4984631;28;20300;-88
2022/01/13 08:56:38;;;;;;;;;;;;;;;1.60;82.23;102036.91;4982309;28;19972;-89
2022/01/13 08:59:04;;;;;;;;;;;;;;;3.47;81.53;102028.66;4981670;28;20383;-88
2022/01/13 09:01:36;;;;;;;;;;;;;;;3.67;81.10;102035.22;4981950;28;19925;-88
2022/01/13 09:04:02;;;;;;;;;;;;;;;4.14;80.96;102021.28;4982766;28;20396;-87
2022/01/13 09:06:27;;;;;;;;;;;;;;;3.27;81.39;102031.69;4984132;28;19926;-93
2022/01/13 09:08:52;;;;;;;;;;;;;;;2.62;83.28;102019.66;4985337;28;19918;-92
2022/01/13 09:11:18;;;;;;;;;;;;;;;2.31;83.90;102024.13;4985443;28;19977;-92
2022/01/13 09:13:43;;;;;;;;;;;;;;;2.12;83.81;102027.97;4984677;28;19922;-91
2022/01/13 09:16:18;;;;;;;;;;;;;;;2.05;83.24;102027.75;4984169;28;19929;-91
2022/01/13 09:21:22;;;;;;;;;;;;;;;1.81;81.87;102021.84;4982001;28;19925;-93
2022/01/13 09:23:47;;;;;;;;;;;;;;;1.75;81.53;102031.25;4980868;28;19918;-94
2022/01/13 09:26:13;;;;;;;;;;;;;;;1.70;81.14;102038.94;4983018;28;19980;-93
2022/01/13 09:28:39;;;;;;;;;;;;;;;1.67;80.83;102036.25;4982794;28;20274;-93
2022/01/13 09:31:05;;;;;;;;;;;;;;;1.64;80.43;102044.00;4981659;28;19953;-92
2022/01/13 09:33:30;;;;;;;;;;;;;;;1.63;80.08;102043.13;4986780;28;19941;-87
2022/01/13 09:35:55;;;;;;;;;;;;;;;1.58;79.89;102038.56;4978563;28;19922;-93
2022/01/13 09:38:21;;;;;;;;;;;;;;;1.56;79.72;102046.38;4983617;28;20061;-86
2022/01/13 09:40:48;;;;;;;;;;;;;;;1.59;79.63;102037.75;4981310;28;19918;-89
2022/01/13 09:43:14;;;;;;;;;;;;;;;1.54;79.23;102045.44;4981641;28;19953;-88
2022/01/13 09:45:39;;;;;;;;;;;;;;;1.50;79.05;102038.38;4981766;28;20439;-89
2022/01/13 09:48:05;;;;;;;;;;;;;;;1.51;79.02;102047.97;4982202;28;20423;-87
2022/01/13 09:50:30;;;;;;;;;;;;;;;1.51;79.03;102047.97;4982199;28;20451;-87
2022/01/13 09:52:56;;;;;;;;;;;;;;;1.49;78.96;102039.19;4981950;28;19917;-86
2022/01/13 09:55:21;;;;;;;;;;;;;;;1.52;78.66;102039.31;4983159;28;20353;-86
2022/01/13 09:57:48;;;;;;;;;;;;;;;1.48;78.62;102047.88;4982031;28;20387;-87
2022/01/13 10:00:15;;;;;;;;;;;;;;;1.53;78.72;102053.25;4980663;28;19926;-88
2022/01/13 10:02:40;;;;;;;;;;;;;;;1.45;78.65;102046.06;4985467;28;20270;-89
2022/01/13 10:05:05;;;;;;;;;;;;;;;1.48;78.57;102047.88;4982403;28;19928;-87
2022/01/13 10:07:38;;;;;;;;;;;;;;;1.45;78.23;102050.38;4979065;28;19918;-91
2022/01/13 10:10:06;;;;;;;;;;;;;;;1.45;78.37;102042.56;4981432;28;20405;-92
2022/01/13 10:12:37;;;;;;;;;;;;;;;1.45;78.22;102047.78;4981267;28;19918;-91
2022/01/13 10:17:43;;;;;;;;;;;;;;;1.44;78.09;102040.78;4983261;28;19925;-91
2022/01/13 10:20:12;;;;;;;;;;;;;;;1.42;77.94;102039.84;4981824;28;20369;-88
2022/01/13 10:22:37;;;;;;;;;;;;;;;1.45;78.08;102033.00;4983975;28;20143;-93
2022/01/13 10:25:03;;;;;;;;;;;;;;;1.46;78.00;102031.28;4985312;28;20196;-93
2022/01/13 10:27:29;;;;;;;;;;;;;;;1.43;78.00;102028.56;4983233;28;19918;-90
2022/01/13 10:29:56;;;;;;;;;;;;;;;1.43;77.88;102034.66;4981978;28;20021;-93
2022/01/13 10:32:40;;;;;;;;;;;;;;;1.44;77.85;102038.19;4998417;28;19918;-88
2022/01/13 10:35:07;;;;;;;;;;;;;;;1.47;77.85;102037.38;4983593;28;19928;-86
2022/01/13 10:37:34;;;;;;;;;;;;;;;1.45;77.93;102034.72;4984313;28;19997;-92
2022/01/13 10:40:00;;;;;;;;;;;;;;;1.42;77.79;102027.69;4982963;28;19933;-93
2022/01/13 10:45:07;;;;;;;;;;;;;;;1.43;77.55;102026.81;4986139;28;19941;-87
2022/01/13 10:47:32;;;;;;;;;;;;;;;1.40;77.52;102033.69;4988391;28;19918;-92
2022/01/13 10:50:06;;;;;;;;;;;;;;;1.42;77.45;102029.38;4985913;28;19965;-93
2022/01/13 10:52:32;;;;;;;;;;;;;;;1.44;77.43;102026.00;4990134;28;20004;-92
2022/01/13 10:55:03;;;;;;;;;;;;;;;1.45;77.23;102019.03;4986298;28;20428;-89
2022/01/13 10:57:29;;;;;;;;;;;;;;;1.41;77.12;102014.56;4983647;28;20044;-87
2022/01/13 10:59:54;;;;;;;;;;;;;;;1.45;77.07;102016.41;5000612;28;20000;-88
2022/01/13 11:02:20;;;;;;;;;;;;;;;1.39;76.92;102013.66;4985460;28;19985;-86
2022/01/13 11:04:46;;;;;;;;;;;;;;;1.43;76.68;102015.50;4990003;28;20372;-92
2022/01/13 11:07:15;;;;;;;;;;;;;;;1.43;76.74;102018.97;4985820;28;19918;-92
2022/01/13 11:09:43;;;;;;;;;;;;;;;1.43;76.63;102007.66;4987280;28;19945;-95
2022/01/13 11:12:10;;;;;;;;;;;;;;;1.42;76.55;102000.66;4988754;28;19990;-93
2022/01/13 11:14:41;;;;;;;;;;;;;;;1.43;76.55;101997.22;4985738;28;19945;-92
2022/01/13 11:17:07;;;;;;;;;;;;;;;1.47;76.82;101999.09;4985092;28;19918;-91
2022/01/13 11:19:33;;;;;;;;;;;;;;;1.47;76.60;102000.78;4987657;28;19945;-87
2022/01/13 11:21:58;;;;;;;;;;;;;;;1.53;76.58;102004.50;4985993;28;19922;-86
2022/01/13 11:24:23;;;;;;;;;;;;;;;1.50;76.72;102001.78;4987627;28;19928;-92
2022/01/13 11:26:49;;;;;;;;;;;;;;;1.54;76.72;102005.38;4983918;28;19926;-93
2022/01/13 11:29:16;;;;;;;;;;;;;;;1.54;76.68;102006.25;4986761;28;19921;-90
2022/01/13 11:31:41;;;;;;;;;;;;;;;1.58;76.66;102008.13;4984970;28;19964;-85
2022/01/13 11:34:07;;;;;;;;;;;;;;;1.55;76.33;102002.81;4984238;28;20008;-86
2022/01/13 11:36:33;;;;;;;;;;;;;;;1.58;76.47;102000.28;4981623;28;19926;-90
2022/01/13 11:38:59;;;;;;;;;;;;;;;1.56;76.23;101994.09;4987059;28;20365;-93
2022/01/13 11:41:25;;;;;;;;;;;;;;;1.57;76.21;101995.00;4988298;28;19918;-86
2022/01/13 11:43:50;;;;;;;;;;;;;;;1.60;76.25;101998.59;4986334;28;19975;-92
2022/01/13 11:46:19;;;;;;;;;;;;;;;1.56;75.95;101993.22;4988054;28;19953;-92
2022/01/13 11:48:57;;;;;;;;;;;;;;;1.59;76.02;101986.34;4985685;28;20003;-88
2022/01/13 11:51:22;;;;;;;;;;;;;;;1.61;76.00;101982.09;4983843;28;19922;-87
2022/01/13 11:53:57;;;;;;;;;;;;;;;1.59;75.69;101983.75;4983608;28;19922;-92
2022/01/13 11:56:23;;;;;;;;;;;;;;;1.61;75.66;101984.69;4987646;28;19929;-93
2022/01/13 11:58:48;;;;;;;;;;;;;;;1.61;75.73;101987.31;4985055;28;19922;-92
2022/01/13 12:01:20;;;;;;;;;;;;;;;1.67;75.82;101983.09;4983521;28;19926;-85
2022/01/13 12:03:50;;;;;;;;;;;;;;;1.70;75.94;101981.44;4983248;28;19995;-91
2022/01/13 12:06:31;;;;;;;;;;;;;;;1.60;75.63;101968.97;4982587;28;20364;-94
2022/01/13 12:08:58;;;;;;;;;;;;;;;1.60;75.54;101977.69;4984622;28;20491;-92
2022/01/13 12:11:41;;;;;;;;;;;;;;;1.62;75.50;101970.78;4985453;28;20432;-87
2022/01/13 12:14:30;;;;;;;;;;;;;;;1.60;75.28;101969.84;4984961;28;20289;-87
2022/01/13 12:17:04;;;;;;;;;;;;;;;1.70;75.50;101967.50;4982787;28;19922;-87
2022/01/13 12:19:34;;;;;;;;;;;;;;;1.70;75.43;101977.97;4982796;28;20380;-89
2022/01/13 12:22:11;;;;;;;;;;;;;;;1.66;75.48;101973.47;4986266;28;19954;-87
2022/01/13 12:24:47;;;;;;;;;;;;;;;1.60;75.42;101959.41;4986938;28;19918;-86
2022/01/13 12:27:13;;;;;;;;;;;;;;;1.65;75.63;101958.66;4999867;28;19928;-89
2022/01/13 12:29:48;;;;;;;;;;;;;;;1.66;75.51;101965.63;4983807;28;20354;-93
2022/01/13 12:32:16;;;;;;;;;;;;;;;1.61;75.46;101958.56;4985563;28;19926;-92
2022/01/13 12:34:44;;;;;;;;;;;;;;;1.60;75.33;101955.91;4998400;28;19926;-88
2022/01/13 12:37:09;;;;;;;;;;;;;;;1.66;75.47;101948.25;4980073;28;20380;-87
2022/01/13 12:39:34;;;;;;;;;;;;;;;1.67;75.66;101938.66;4983228;28;19921;-87
2022/01/13 12:42:03;;;;;;;;;;;;;;;1.73;75.33;101944.06;4984296;28;19924;-92
2022/01/13 12:47:13;;;;;;;;;;;;;;;1.67;75.29;101930.81;4980861;28;20329;-87
2022/01/13 12:49:38;;;;;;;;;;;;;;;1.73;75.52;101936.22;4983733;28;19922;-90
2022/01/13 12:52:04;;;;;;;;;;;;;;;2.06;77.53;101928.41;4980207;28;20288;-89
2022/01/13 12:54:29;;;;;;;;;;;;;;;2.29;80.23;101926.38;4985032;28;19957;-87
2022/01/13 12:56:55;;;;;;;;;;;;;;;2.45;82.57;101916.28;4985451;28;19918;-93
2022/01/13 12:59:22;;;;;;;;;;;;;;;2.52;84.38;101908.63;4980173;28;19997;-94
2022/01/13 13:01:47;;;;;;;;;;;;;;;2.58;85.87;101901.75;4984400;28;19922;-94
2022/01/13 13:04:13;;;;;;;;;;;;;;;2.59;87.10;101888.72;4983670;28;20435;-93
2022/01/13 13:06:41;;;;;;;;;;;;;;;2.63;88.19;101895.81;4982084;28;20438;-89
2022/01/13 13:09:07;;;;;;;;;;;;;;;2.52;89.07;101897.25;4985290;28;19928;-94
2022/01/13 13:11:33;;;;;;;;;;;;;;;2.48;90.25;101898.03;4983472;28;19954;-87
2022/01/13 13:14:00;;;;;;;;;;;;;;;2.47;91.59;101888.41;4984391;28;19960;-86
2022/01/13 13:16:25;;;;;;;;;;;;;;;2.50;92.52;101883.25;4982411;28;19992;-89
2022/01/13 13:18:52;;;;;;;;;;;;;;;2.59;93.49;101887.84;4982293;28;19918;-87
2022/01/13 13:21:17;;;;;;;;;;;;;;;2.60;94.33;101885.25;4981860;28;20021;-90
2022/01/13 13:23:44;;;;;;;;;;;;;;;2.63;95.29;101882.72;4982954;28;20029;-88
2022/01/13 13:26:14;;;;;;;;;;;;;;;2.61;96.26;101879.16;4983504;28;19918;-88
2022/01/13 13:28:47;;;;;;;;;;;;;;;2.59;97.98;101880.00;4999844;28;19917;-87
2022/01/13 13:31:24;;;;;;;;;;;;;;;2.63;99.75;101871.34;4983298;28;19918;-94
2022/01/13 13:33:57;;;;;;;;;;;;;;;2.86;100.00;101872.75;4984858;28;19965;-87
2022/01/13 13:36:24;;;;;;;;;;;;;;;3.05;100.00;101876.66;4981718;28;19922;-91
2022/01/13 13:38:54;;;;;;;;;;;;;;;3.19;100.00;101881.28;4982014;28;19922;-86
2022/01/13 13:41:22;;;;;;;;;;;;;;;3.31;100.00;101875.44;4984061;28;19968;-88
2022/01/13 13:43:47;;;;;;;;;;;;;;;3.37;100.00;101876.44;4985518;28;19914;-93
2022/01/13 13:46:14;;;;;;;;;;;;;;;3.46;100.00;101878.34;4980831;28;19925;-90
2022/01/13 13:48:45;;;;;;;;;;;;;;;3.51;100.00;101881.97;4985170;28;19914;-88
2022/01/13 13:51:15;;;;;;;;;;;;;;;3.58;100.00;101882.97;4982173;28;19918;-93
2022/01/13 13:54:00;;;;;;;;;;;;;;;3.63;100.00;101884.78;4982860;28;19961;-88
2022/01/13 13:56:25;;;;;;;;;;;;;;;3.69;100.00;101883.16;4984119;28;19965;-93
2022/01/13 13:58:51;;;;;;;;;;;;;;;3.74;100.00;101884.13;4983299;28;19925;-86
2022/01/13 14:01:16;;;;;;;;;;;;;;;3.79;100.00;101885.97;4983904;28;19925;-92
2022/01/13 14:03:44;;;;;;;;;;;;;;;3.82;100.00;101887.78;4984585;28;20350;-88
2022/01/13 14:06:30;;;;;;;;;;;;;;;3.88;100.00;101889.59;4981483;28;20434;-89
2022/01/13 14:08:55;;;;;;;;;;;;;;;3.93;100.00;101882.72;4983359;28;19973;-90
2022/01/13 14:11:21;;;;;;;;;;;;;;;3.97;100.00;101887.16;4981970;28;19921;-91
2022/01/13 14:13:48;;;;;;;;;;;;;;;4.00;100.00;101895.09;4981372;28;19988;-86
2022/01/13 14:16:13;;;;;;;;;;;;;;;4.03;100.00;101884.66;4981123;28;19918;-87
2022/01/13 14:18:39;;;;;;;;;;;;;;;4.08;100.00;101888.22;4987834;28;19925;-86
2022/01/13 14:21:04;;;;;;;;;;;;;;;4.11;100.00;101888.28;4984807;28;19922;-87
2022/01/13 14:23:34;;;;;;;;;;;;;;;4.13;100.00;101894.47;4986994;28;19957;-87
2022/01/13 14:26:02;;;;;;;;;;;;;;;4.19;100.00;101891.03;4984741;28;20293;-86
2022/01/13 14:28:30;;;;;;;;;;;;;;;3.35;100.00;101888.63;4985599;28;19949;-91
2022/01/13 14:30:59;;;;;;;;;;;;;;;2.87;100.00;101889.34;4981239;28;19972;-91
2022/01/13 14:33:25;;;;;;;;;;;;;;;2.65;100.00;101883.63;4985888;28;19918;-89
2022/01/13 14:36:08;;;;;;;;;;;;;;;2.53;100.00;101885.94;4985944;28;19918;-92
2022/01/13 14:38:35;;;;;;;;;;;;;;;2.38;100.00;101888.19;4984533;28;19931;-89
2022/01/13 14:41:00;;;;;;;;;;;;;;;2.34;100.00;101884.63;5002275;28;20379;-87
2022/01/13 14:43:26;;;;;;;;;;;;;;;2.27;100.00;101886.22;4984504;28;19918;-93
2022/01/13 14:46:09;;;;;;;;;;;;;;;2.22;100.00;101881.69;4989936;28;19925;-85
2022/01/13 14:48:35;;;;;;;;;;;;;;;2.17;99.51;101874.63;4988121;28;20056;-87
2022/01/13 14:51:11;;;;;;;;;;;;;;;2.10;98.25;101879.66;4985391;28;20005;-89
2022/01/13 14:53:37;;;;;;;;;;;;;;;2.03;97.09;101875.13;4984311;28;19922;-92
2022/01/13 14:56:03;;;;;;;;;;;;;;;1.98;95.99;101875.91;4985194;28;19929;-93
2022/01/13 14:58:28;;;;;;;;;;;;;;;1.93;94.91;101877.53;5002273;28;20056;-93
2022/01/13 15:00:55;;;;;;;;;;;;;;;1.83;93.91;101875.50;4987296;28;20020;-88
2022/01/13 15:03:21;;;;;;;;;;;;;;;1.85;93.09;101871.22;4985674;28;19918;-88
2022/01/13 15:05:46;;;;;;;;;;;;;;;1.81;92.44;101874.56;4982216;28;19921;-92
2022/01/13 15:08:11;;;;;;;;;;;;;;;1.76;91.63;101873.56;4988875;28;20354;-90
2022/01/13 15:10:37;;;;;;;;;;;;;;;1.71;91.03;101867.31;4983944;28;19976;-93
2022/01/13 15:13:03;;;;;;;;;;;;;;;1.71;90.52;101872.53;4987576;28;19995;-93
2022/01/13 15:15:28;;;;;;;;;;;;;;;1.63;90.11;101874.97;4985844;28;20008;-92
2022/01/13 15:17:53;;;;;;;;;;;;;;;1.57;89.74;101875.69;4990966;28;19922;-90
2022/01/13 15:20:18;;;;;;;;;;;;;;;1.55;89.46;101872.16;4986026;28;19918;-87
2022/01/13 15:22:44;;;;;;;;;;;;;;;1.48;88.94;101870.19;4987167;28;19918;-87
2022/01/13 15:25:09;;;;;;;;;;;;;;;1.47;88.68;101872.75;4983825;28;19924;-88
2022/01/13 15:27:34;;;;;;;;;;;;;;;1.44;88.31;101866.63;4983822;28;20270;-88
2022/01/13 15:30:00;;;;;;;;;;;;;;;1.42;87.94;101864.78;4984181;28;19960;-90
2022/01/13 15:32:25;;;;;;;;;;;;;;;1.40;87.95;101863.88;4984844;28;19917;-91
2022/01/13 15:34:50;;;;;;;;;;;;;;;1.34;87.59;101862.00;4985825;28;19997;-91
2022/01/13 15:37:15;;;;;;;;;;;;;;;1.32;87.51;101860.16;4986685;28;20411;-89
2022/01/13 15:39:41;;;;;;;;;;;;;;;1.33;87.28;101857.59;4984293;28;19918;-93
2022/01/13 15:42:06;;;;;;;;;;;;;;;1.31;87.20;101861.91;4987783;28;19922;-93
2022/01/13 15:44:31;;;;;;;;;;;;;;;1.31;87.16;101856.69;4982589;28;19925;-93
2022/01/13 15:46:57;;;;;;;;;;;;;;;1.29;87.08;101857.47;4987215;28;19922;-89
2022/01/13 15:49:23;;;;;;;;;;;;;;;1.27;86.99;101860.91;4985307;28;20003;-92
2022/01/13 15:51:48;;;;;;;;;;;;;;;1.22;86.94;101854.69;4985551;28;19918;-93
2022/01/13 15:54:13;;;;;;;;;;;;;;;1.21;86.76;101855.53;4987244;28;19953;-95
2022/01/13 15:56:38;;;;;;;;;;;;;;;1.20;86.68;101858.97;4990343;28;19926;-94
2022/01/13 15:59:04;;;;;;;;;;;;;;;1.17;86.52;101855.41;4982706;28;19918;-87
2022/01/13 16:01:31;;;;;;;;;;;;;;;1.13;86.41;101848.31;4984164;28;20218;-85
2022/01/13 16:03:56;;;;;;;;;;;;;;;1.09;86.36;101856.06;4986934;28;19922;-93
2022/01/13 16:06:22;;;;;;;;;;;;;;;1.08;86.11;101850.78;4983613;28;19973;-88
2022/01/13 16:08:47;;;;;;;;;;;;;;;1.07;86.03;101841.19;4984968;28;19922;-87
2022/01/13 16:11:12;;;;;;;;;;;;;;;1.05;86.00;101853.31;4983489;28;19922;-86
2022/01/13 16:13:38;;;;;;;;;;;;;;;1.03;85.79;101849.78;4984150;28;19918;-88
2022/01/13 16:16:04;;;;;;;;;;;;;;;1.02;85.75;101848.00;4984971;28;20343;-86
2022/01/13 16:18:30;;;;;;;;;;;;;;;1.04;85.68;101851.56;4984179;28;19922;-89
2022/01/13 16:20:55;;;;;;;;;;;;;;;1.05;85.56;101845.47;4982667;28;20281;-90
2022/01/13 16:23:21;;;;;;;;;;;;;;;1.05;85.68;101845.47;4985220;28;19981;-92
2022/01/13 16:25:46;;;;;;;;;;;;;;;1.00;85.85;101850.56;4984652;28;19918;-91
2022/01/13 16:28:11;;;;;;;;;;;;;;;1.00;85.87;101847.06;4989099;28;20369;-87
2022/01/13 16:30:37;;;;;;;;;;;;;;;0.98;85.73;101851.38;4986319;28;19982;-89
2022/01/13 16:33:02;;;;;;;;;;;;;;;0.97;85.85;101857.41;4983047;28;19933;-85
2022/01/13 16:35:28;;;;;;;;;;;;;;;0.92;85.81;101851.19;4982736;28;19929;-89
2022/01/13 16:37:55;;;;;;;;;;;;;;;0.93;85.57;101853.84;4982342;28;19922;-83
2022/01/13 16:40:21;;;;;;;;;;;;;;;0.92;85.55;101846.84;4982625;28;19922;-88
2022/01/13 16:42:49;;;;;;;;;;;;;;;0.93;85.53;101842.53;4985602;28;20000;-87
2022/01/13 16:45:16;;;;;;;;;;;;;;;0.95;85.51;101844.31;4983093;28;19921;-87
2022/01/13 16:47:41;;;;;;;;;;;;;;;0.94;85.33;101846.88;4980577;28;20021;-85
2022/01/13 16:50:08;;;;;;;;;;;;;;;0.89;85.38;101837.22;4981909;28;20013;-87
2022/01/13 16:52:33;;;;;;;;;;;;;;;0.90;85.12;101832.88;4985777;28;19957;-94
2022/01/13 16:55:00;;;;;;;;;;;;;;;0.90;85.16;101835.47;4984017;28;19969;-94
2022/01/13 16:57:26;;;;;;;;;;;;;;;0.85;85.03;101830.13;4989114;28;19925;-92
2022/01/13 16:59:51;;;;;;;;;;;;;;;0.85;84.94;101830.13;4995944;28;19962;-90
2022/01/13 17:02:17;;;;;;;;;;;;;;;0.88;85.07;101835.44;4982436;28;19925;-89
2022/01/13 17:04:42;;;;;;;;;;;;;;;0.84;84.99;101828.34;4988973;28;20284;-88
2022/01/13 17:07:08;;;;;;;;;;;;;;;0.85;85.07;101829.25;4987767;28;19921;-93
2022/01/13 17:09:33;;;;;;;;;;;;;;;0.84;85.00;101828.34;4982960;28;19925;-92
2022/01/13 17:11:58;;;;;;;;;;;;;;;0.83;84.87;101821.38;4984643;28;19929;-85
2022/01/13 17:14:24;;;;;;;;;;;;;;;0.84;84.98;101828.34;4990886;28;20017;-92
2022/01/13 17:16:49;;;;;;;;;;;;;;;0.82;84.88;101827.41;4983236;28;19991;-92
2022/01/13 17:19:15;;;;;;;;;;;;;;;0.80;84.88;101823.88;4982346;28;19985;-88
2022/01/13 17:21:40;;;;;;;;;;;;;;;0.78;84.88;101830.75;4981028;28;19929;-91
2022/01/13 17:24:06;;;;;;;;;;;;;;;0.80;84.58;101831.72;4985261;28;19949;-94
2022/01/13 17:26:32;;;;;;;;;;;;;;;0.78;84.61;101832.50;4985101;28;20297;-89
2022/01/13 17:28:58;;;;;;;;;;;;;;;0.77;84.50;101836.84;4984447;28;19948;-91
2022/01/13 17:31:24;;;;;;;;;;;;;;;0.78;84.47;101833.38;4980426;28;19922;-92
2022/01/13 17:33:49;;;;;;;;;;;;;;;0.77;84.61;101836.84;4983085;28;19929;-88
2022/01/13 17:36:15;;;;;;;;;;;;;;;0.79;84.53;101840.38;4981074;28;20440;-83
2022/01/13 17:38:40;;;;;;;;;;;;;;;0.77;84.43;101841.19;4982766;28;19929;-87
2022/01/13 17:41:05;;;;;;;;;;;;;;;0.75;84.25;101843.75;4980629;28;19926;-87
2022/01/13 17:43:30;;;;;;;;;;;;;;;0.74;84.26;101838.47;4980211;28;19930;-93
2022/01/13 17:45:56;;;;;;;;;;;;;;;0.75;84.12;101841.13;4983985;28;20376;-87
2022/01/13 17:48:23;;;;;;;;;;;;;;;0.73;84.15;101834.97;4985445;28;20362;-86
2022/01/13 17:50:48;;;;;;;;;;;;;;;0.71;84.08;101839.25;4981910;28;20473;-91
2022/01/13 17:53:13;;;;;;;;;;;;;;;0.71;84.22;101836.66;4986204;28;20001;-85
2022/01/13 17:55:38;;;;;;;;;;;;;;;0.73;84.07;101834.97;4991899;28;19961;-89
2022/01/13 17:58:04;;;;;;;;;;;;;;;0.75;84.11;101842.84;4989704;28;19958;-89
2022/01/13 18:00:29;;;;;;;;;;;;;;;0.69;84.13;101834.00;4989769;28;20340;-88
2022/01/13 18:02:54;;;;;;;;;;;;;;;0.72;84.09;101838.44;4986452;28;19949;-90
2022/01/13 18:05:19;;;;;;;;;;;;;;;0.68;83.79;101836.56;4984886;28;19933;-90
2022/01/13 18:07:45;;;;;;;;;;;;;;;0.69;83.69;101838.34;4987795;28;20395;-84
2022/01/13 18:10:12;;;;;;;;;;;;;;;0.65;83.54;101839.06;4986603;28;19934;-92
2022/01/13 18:12:37;;;;;;;;;;;;;;;0.66;83.48;101830.41;4980878;28;20005;-90
2022/01/13 18:15:04;;;;;;;;;;;;;;;0.66;83.29;101828.69;4989939;28;19969;-92
2022/01/13 18:17:31;;;;;;;;;;;;;;;0.65;83.18;101826.03;4989542;28;20373;-87
2022/01/13 18:19:57;;;;;;;;;;;;;;;0.66;83.30;101827.81;4986668;28;19976;-85
2022/01/13 18:22:22;;;;;;;;;;;;;;;0.64;83.33;101822.53;4986892;28;19987;-88
2022/01/13 18:24:47;;;;;;;;;;;;;;;0.62;83.08;101824.19;4984811;28;19925;-87
2022/01/13 18:27:13;;;;;;;;;;;;;;;0.64;83.09;101819.03;4988577;28;20010;-93
2022/01/13 18:29:39;;;;;;;;;;;;;;;1.21;83.19;101816.38;4990606;28;19922;-92
2022/01/13 18:32:05;;;;;;;;;;;;;;;0.93;83.48;101821.66;4996390;28;19929;-85
2022/01/13 18:34:30;;;;;;;;;;;;;;;0.85;83.40;101822.28;4987717;28;19932;-94
2022/01/13 18:36:56;;;;;;;;;;;;;;;0.76;83.05;101819.41;4986762;28;19922;-91
2022/01/13 18:39:22;;;;;;;;;;;;;;;0.72;82.79;101815.81;4989081;28;19918;-89
2022/01/13 18:41:49;;;;;;;;;;;;;;;0.71;82.69;101816.66;4992262;28;19922;-87
2022/01/13 18:44:15;;;;;;;;;;;;;;;0.73;82.41;101811.47;4987202;28;19926;-94
2022/01/13 18:46:47;;;;;;;;;;;;;;;0.69;82.43;101807.91;4992268;28;19918;-87
2022/01/13 18:49:12;;;;;;;;;;;;;;;0.69;82.21;101804.41;4991149;28;19926;-84
2022/01/13 18:51:37;;;;;;;;;;;;;;;0.68;82.13;101805.25;4991386;28;19922;-85
2022/01/13 18:54:03;;;;;;;;;;;;;;;0.70;81.92;101808.78;4985842;28;19928;-88
2022/01/13 18:56:28;;;;;;;;;;;;;;;0.70;81.89;101809.69;4985284;28;20292;-85
2022/01/13 18:58:54;;;;;;;;;;;;;;;0.69;81.73;101807.91;4990303;28;20029;-84
2022/01/13 19:01:19;;;;;;;;;;;;;;;0.70;81.71;101803.56;4987896;28;19922;-93
2022/01/13 19:03:44;;;;;;;;;;;;;;;0.73;81.42;101798.44;4981683;28;19918;-91
2022/01/13 19:06:10;;;;;;;;;;;;;;;0.70;81.28;101798.34;4992381;28;19917;-88
2022/01/13 19:08:35;;;;;;;;;;;;;;;0.73;81.22;101798.44;4994084;28;19933;-91
2022/01/13 19:11:01;;;;;;;;;;;;;;;0.69;81.08;101791.38;4989278;28;19929;-87
2022/01/13 19:13:26;;;;;;;;;;;;;;;0.69;80.92;101796.59;4994181;28;19929;-93
2022/01/13 19:15:54;;;;;;;;;;;;;;;0.70;80.80;101787.91;4985395;28;20393;-91
2022/01/13 19:18:23;;;;;;;;;;;;;;;0.71;80.56;101789.69;4987044;28;19918;-94
2022/01/13 19:20:49;;;;;;;;;;;;;;;0.72;80.61;101786.25;4986051;28;19922;-92
2022/01/13 19:23:14;;;;;;;;;;;;;;;0.73;80.20;101793.22;4988954;28;19922;-86
2022/01/13 19:25:40;;;;;;;;;;;;;;;0.70;80.00;101794.03;4989442;28;20389;-86
2022/01/13 19:28:07;;;;;;;;;;;;;;;0.73;79.82;101790.59;4985104;28;20355;-94
2022/01/13 19:30:41;;;;;;;;;;;;;;;0.68;79.78;101795.69;4991702;28;19922;-94
2022/01/13 19:33:08;;;;;;;;;;;;;;;0.69;79.68;101791.38;4991877;28;20033;-86
2022/01/13 19:35:33;;;;;;;;;;;;;;;0.75;79.41;101788.94;4993099;28;19929;-92
2022/01/13 19:37:59;;;;;;;;;;;;;;;0.76;79.22;101788.09;4992115;28;19921;-93
2022/01/13 19:40:24;;;;;;;;;;;;;;;0.78;79.42;101788.13;4990090;28;20285;-93
2022/01/13 19:42:49;;;;;;;;;;;;;;;0.76;79.33;101785.47;5006623;28;19972;-94
2022/01/13 19:45:15;;;;;;;;;;;;;;;0.84;79.47;101785.69;4984117;28;19918;-86
2022/01/13 19:47:41;;;;;;;;;;;;;;;0.81;79.23;101783.88;4988674;28;20017;-94
2022/01/13 19:50:08;;;;;;;;;;;;;;;0.79;79.15;101777.75;4983286;28;19926;-93
2022/01/13 19:52:34;;;;;;;;;;;;;;;0.81;79.28;101773.44;4987544;28;19926;-90
2022/01/13 19:55:00;;;;;;;;;;;;;;;0.82;78.94;101775.22;5004425;28;19921;-95
2022/01/13 19:57:25;;;;;;;;;;;;;;;0.85;78.92;101770.09;4989018;28;20012;-92
2022/01/13 19:59:54;;;;;;;;;;;;;;;0.85;78.76;101766.59;4985694;28;20365;-94
2022/01/13 20:02:19;;;;;;;;;;;;;;;0.83;78.65;101769.16;4988603;28;20816;-95
2022/01/13 20:04:45;;;;;;;;;;;;;;;0.78;78.57;101781.19;4987797;28;19972;-94
2022/01/13 20:07:10;;;;;;;;;;;;;;;0.83;78.50;101778.69;4987686;28;19921;-86
2022/01/13 20:09:35;;;;;;;;;;;;;;;0.87;78.32;101771.00;4995201;28;19921;-91